Time;durP1;ratioP1;P1;durP2;ratioP2;P2;SDS_P1;SDS_P2;PMS_P1;PMS_P2;Temp;Humidity;BMP_temperature;BMP_pressure;BME280_temperature;BME280_humidity;BME280_pressure;Samples;Min_cycle;Max_cycle;Signal;HPM_P1;HPM_P2
2020/12/05 12:54:22;;;;;;;18.55;4.72;;;16.40;99.90;;;;;;4973066;28;20066;-73
2020/12/05 12:56:49;;;;;;;26.77;5.15;;;16.40;99.90;;;;;;4952966;29;20039;-73
2020/12/05 12:59:14;;;;;;;26.63;4.93;;;16.40;99.90;;;;;;4972700;28;20077;-73
2020/12/05 13:01:40;;;;;;;29.45;6.00;;;16.30;99.90;;;;;;4968429;28;20039;-73
2020/12/05 13:04:06;;;;;;;25.52;5.65;;;16.30;99.90;;;;;;4954443;29;20091;-74
2020/12/05 13:06:32;;;;;;;14.65;4.97;;;16.30;99.90;;;;;;4937561;29;20401;-73
2020/12/05 13:08:58;;;;;;;18.20;4.85;;;16.20;99.90;;;;;;4936567;28;20101;-75
2020/12/05 13:11:24;;;;;;;23.20;5.53;;;16.20;99.90;;;;;;4966100;28;20034;-73
2020/12/05 13:13:49;;;;;;;21.48;6.07;;;16.10;99.90;;;;;;4967217;28;20053;-74
2020/12/05 13:16:19;;;;;;;17.45;5.53;;;16.10;99.90;;;;;;4960123;28;20180;-74
2020/12/05 13:18:46;;;;;;;30.90;6.70;;;16.10;99.90;;;;;;4968932;28;20030;-74
2020/12/05 13:21:42;;;;;;;19.13;5.38;;;16.10;99.90;;;;;;4984421;23;20062;-88
2020/12/05 13:24:14;;;;;;;20.50;4.90;;;16.10;99.90;;;;;;4972230;28;20020;-89
2020/12/05 13:26:53;;;;;;;28.98;5.68;;;16.10;99.90;;;;;;4980358;28;20023;-88
2020/12/05 13:29:33;;;;;;;20.77;6.15;;;16.20;99.90;;;;;;4967958;28;20046;-85
2020/12/05 13:32:41;;;;;;;;;;;;;;;;;;;;;
2020/12/05 13:35:13;;;;;;;19.27;5.55;;;16.30;99.90;;;;;;4977143;28;20019;-87
2020/12/05 13:37:46;;;;;;;25.20;5.30;;;16.30;99.90;;;;;;4966144;28;20125;-90
2020/12/05 13:40:36;;;;;;;37.17;8.45;;;16.30;99.90;;;;;;4963885;28;20307;-91
2020/12/05 13:43:13;;;;;;;24.15;5.88;;;16.30;99.90;;;;;;4970864;28;20038;-90
2020/12/05 13:45:47;;;;;;;23.98;5.90;;;16.30;99.90;;;;;;4978678;28;20043;-91
2020/12/05 13:48:18;;;;;;;28.02;5.90;;;16.30;99.90;;;;;;4980623;28;20031;-91
2020/12/05 13:50:59;;;;;;;23.17;5.18;;;16.30;99.90;;;;;;4964800;28;20039;-87
2020/12/05 13:53:58;;;;;;;;;;;;;;;;;;;;;
2020/12/05 13:56:32;;;;;;;29.52;6.93;;;16.30;99.90;;;;;;4961543;28;20035;-88
2020/12/05 13:59:06;;;;;;;14.73;4.28;;;16.30;99.90;;;;;;4972898;28;20026;-88
2020/12/05 14:01:38;;;;;;;20.67;5.05;;;16.20;99.90;;;;;;4971441;28;20050;-88
2020/12/05 14:04:07;;;;;;;14.60;4.90;;;16.20;99.90;;;;;;4958094;29;20020;-88
2020/12/05 14:06:36;;;;;;;19.20;4.13;;;16.20;99.90;;;;;;4977730;28;20245;-89
2020/12/05 14:09:05;;;;;;;15.13;4.20;;;16.30;99.90;;;;;;4970977;28;20042;-88
2020/12/05 14:11:36;;;;;;;24.20;6.47;;;16.30;99.90;;;;;;4978130;28;20027;-87
2020/12/05 14:14:25;;;;;;;;;;;;;;;;;;;;;
2020/12/05 14:16:59;;;;;;;16.70;4.32;;;16.30;99.90;;;;;;4984177;28;20306;-91
2020/12/05 14:19:36;;;;;;;24.83;5.13;;;16.30;99.90;;;;;;4975346;28;20024;-91
2020/12/05 14:22:21;;;;;;;20.67;5.60;;;16.30;99.90;;;;;;4975626;28;20074;-89
2020/12/05 14:24:57;;;;;;;19.98;4.93;;;16.30;99.90;;;;;;4972059;28;20046;-90
2020/12/05 14:27:23;;;;;;;21.90;4.38;;;16.30;99.90;;;;;;4984964;23;20181;-74
2020/12/05 14:29:49;;;;;;;20.10;6.20;;;16.20;99.90;;;;;;4968665;28;20077;-74
2020/12/05 14:32:16;;;;;;;29.13;5.78;;;16.30;99.90;;;;;;4950137;28;20043;-73
2020/12/05 14:34:42;;;;;;;27.35;5.90;;;16.20;99.90;;;;;;4948687;28;20027;-73
2020/12/05 14:37:08;;;;;;;19.10;5.05;;;16.10;99.90;;;;;;4954640;28;20031;-74
2020/12/05 14:39:34;;;;;;;33.90;6.00;;;16.10;99.90;;;;;;4960616;28;20042;-75
2020/12/05 14:42:00;;;;;;;22.40;5.07;;;16.10;99.90;;;;;;4949712;29;20098;-72
2020/12/05 14:44:26;;;;;;;20.38;5.57;;;16.10;99.90;;;;;;4934259;29;20073;-73
2020/12/05 14:46:53;;;;;;;23.13;7.22;;;16.00;99.90;;;;;;4956783;29;20505;-72
2020/12/05 14:49:19;;;;;;;19.42;5.15;;;16.00;99.90;;;;;;4957745;28;20050;-73
2020/12/05 14:51:45;;;;;;;24.25;5.38;;;16.10;99.90;;;;;;4955816;28;20031;-73
2020/12/05 14:54:13;;;;;;;25.25;5.78;;;16.10;99.90;;;;;;4964644;28;20598;-73
2020/12/05 14:56:40;;;;;;;20.55;6.18;;;16.10;99.90;;;;;;4958843;28;20035;-74
2020/12/05 14:59:08;;;;;;;21.00;6.53;;;16.10;99.90;;;;;;4945963;28;20053;-73
2020/12/05 15:01:34;;;;;;;24.75;4.72;;;16.00;99.90;;;;;;4967019;28;20037;-74
2020/12/05 15:04:00;;;;;;;31.52;8.02;;;16.00;99.90;;;;;;4966402;28;20046;-73
2020/12/05 15:06:26;;;;;;;22.25;6.97;;;15.90;99.90;;;;;;4957053;28;20024;-73
2020/12/05 15:08:52;;;;;;;23.10;6.32;;;15.90;99.90;;;;;;4952769;28;20042;-74
2020/12/05 15:11:25;;;;;;;26.92;5.43;;;15.90;99.90;;;;;;4945517;28;20099;-75
2020/12/05 15:13:55;;;;;;;34.40;8.00;;;16.00;99.90;;;;;;4960360;28;20020;-75
2020/12/05 15:16:21;;;;;;;27.98;5.20;;;16.00;99.90;;;;;;4951088;28;20087;-74
2020/12/05 15:18:48;;;;;;;25.40;5.70;;;16.00;99.90;;;;;;4957780;28;20047;-75
2020/12/05 15:21:14;;;;;;;23.60;5.38;;;15.90;99.90;;;;;;4964165;28;20039;-75
2020/12/05 15:23:40;;;;;;;31.67;6.25;;;15.90;99.90;;;;;;4951573;28;20062;-74
2020/12/05 15:26:06;;;;;;;21.65;5.68;;;16.00;99.90;;;;;;4946701;29;20019;-74
2020/12/05 15:28:32;;;;;;;21.50;6.20;;;16.00;99.90;;;;;;4934726;29;20050;-74
2020/12/05 15:31:00;;;;;;;27.80;5.40;;;16.00;99.90;;;;;;4952905;29;20378;-76
2020/12/05 15:33:26;;;;;;;18.17;5.40;;;16.00;99.90;;;;;;4956179;29;20027;-74
2020/12/05 15:36:00;;;;;;;21.58;5.53;;;16.00;99.90;;;;;;4956152;29;20461;-73
2020/12/05 15:38:35;;;;;;;16.85;5.75;;;16.00;99.90;;;;;;4956296;29;20386;-74
2020/12/05 15:41:03;;;;;;;28.17;6.00;;;16.00;99.90;;;;;;4953002;29;20035;-73
2020/12/05 15:43:29;;;;;;;28.35;6.10;;;16.00;99.90;;;;;;4954818;28;20066;-73
2020/12/05 15:45:56;;;;;;;22.77;5.72;;;16.00;99.90;;;;;;4953786;28;20082;-73
2020/12/05 15:48:22;;;;;;;23.77;6.60;;;16.00;99.90;;;;;;4947092;29;20028;-74
2020/12/05 15:50:48;;;;;;;21.60;4.88;;;15.90;99.90;;;;;;4940087;29;20039;-74
2020/12/05 15:53:14;;;;;;;18.77;4.78;;;16.00;99.90;;;;;;4925632;29;20463;-74
2020/12/05 15:55:40;;;;;;;33.13;5.05;;;16.00;99.90;;;;;;4937041;29;20030;-74
2020/12/05 15:58:05;;;;;;;19.65;5.43;;;16.00;99.90;;;;;;4936960;29;20490;-74
2020/12/05 16:00:31;;;;;;;23.95;4.68;;;16.10;99.90;;;;;;4919502;29;20043;-76
2020/12/05 16:02:58;;;;;;;28.98;6.32;;;16.10;99.90;;;;;;4936247;29;20024;-75
2020/12/05 16:05:24;;;;;;;23.15;5.03;;;16.10;99.90;;;;;;4936274;29;20032;-74
2020/12/05 16:07:54;;;;;;;29.05;6.35;;;16.10;99.90;;;;;;4936699;29;20107;-74
2020/12/05 16:10:20;;;;;;;26.73;5.38;;;16.10;99.90;;;;;;4938543;29;20024;-74
2020/12/05 16:12:48;;;;;;;25.17;5.75;;;16.10;99.90;;;;;;4948720;29;20019;-75
2020/12/05 16:15:14;;;;;;;24.58;5.05;;;16.20;99.90;;;;;;4931680;29;20030;-74
2020/12/05 16:17:41;;;;;;;16.58;4.55;;;16.20;99.90;;;;;;4949781;29;20023;-74
2020/12/05 16:20:08;;;;;;;27.73;5.30;;;16.20;99.90;;;;;;4950285;28;20031;-75
2020/12/05 16:22:36;;;;;;;16.58;3.80;;;16.20;99.90;;;;;;4951640;29;20057;-72
2020/12/05 16:25:07;;;;;;;18.80;6.53;;;16.20;99.90;;;;;;4944718;29;20096;-72
2020/12/05 16:27:33;;;;;;;23.38;4.35;;;16.20;99.90;;;;;;4937157;29;20035;-72
2020/12/05 16:29:59;;;;;;;26.77;4.82;;;16.20;99.90;;;;;;4919328;29;20554;-72
2020/12/05 16:32:27;;;;;;;21.58;4.97;;;16.10;99.90;;;;;;4936613;29;20031;-73
2020/12/05 16:34:54;;;;;;;20.63;4.50;;;16.10;99.90;;;;;;4936751;29;20407;-73
2020/12/05 16:37:21;;;;;;;25.15;7.05;;;16.20;99.90;;;;;;4940028;29;20251;-73
2020/12/05 16:39:48;;;;;;;25.75;6.38;;;16.20;99.90;;;;;;4946260;29;20090;-73
2020/12/05 16:42:15;;;;;;;17.63;4.93;;;16.20;99.90;;;;;;4953861;29;20105;-72
2020/12/05 16:44:43;;;;;;;23.45;5.75;;;16.20;99.90;;;;;;4955808;29;20027;-73
2020/12/05 16:47:09;;;;;;;11.00;3.38;;;16.20;99.90;;;;;;4955908;29;20505;-72
2020/12/05 16:49:35;;;;;;;21.38;4.93;;;16.20;99.90;;;;;;4950029;29;20058;-73
2020/12/05 16:52:01;;;;;;;16.63;4.45;;;16.20;99.90;;;;;;4930192;29;20087;-73
2020/12/05 16:54:27;;;;;;;22.70;4.82;;;16.20;99.90;;;;;;4951600;29;20035;-72
2020/12/05 16:56:54;;;;;;;17.85;5.25;;;16.20;99.90;;;;;;4948210;29;20031;-72
2020/12/05 16:59:19;;;;;;;24.45;5.15;;;16.20;99.90;;;;;;4941730;29;20031;-72
2020/12/05 17:01:45;;;;;;;18.27;3.72;;;16.20;99.90;;;;;;4958954;28;20030;-72
2020/12/05 17:04:11;;;;;;;27.83;4.93;;;16.20;99.90;;;;;;4947119;29;20031;-73
2020/12/05 17:06:37;;;;;;;19.88;5.45;;;16.20;99.90;;;;;;4931220;29;20027;-73
2020/12/05 17:09:03;;;;;;;19.33;5.07;;;16.20;99.90;;;;;;4947207;29;20027;-73
2020/12/05 17:11:29;;;;;;;20.20;5.10;;;16.10;99.90;;;;;;4937847;29;20533;-72
2020/12/05 17:13:55;;;;;;;24.13;5.35;;;16.20;99.90;;;;;;4947316;29;20020;-73
2020/12/05 17:16:25;;;;;;;20.33;5.57;;;16.20;99.90;;;;;;4926771;29;20094;-73
2020/12/05 17:18:53;;;;;;;17.13;4.70;;;16.20;99.90;;;;;;4959814;28;20018;-73
2020/12/05 17:21:21;;;;;;;17.20;4.90;;;16.20;99.90;;;;;;4963293;28;20393;-72
2020/12/05 17:23:47;;;;;;;23.85;6.35;;;16.20;99.90;;;;;;4954537;28;20493;-72
2020/12/05 17:26:13;;;;;;;28.77;5.75;;;16.20;99.90;;;;;;4947771;29;20386;-72
2020/12/05 17:28:39;;;;;;;27.27;4.93;;;16.20;99.90;;;;;;4949118;29;20039;-72
2020/12/05 17:31:05;;;;;;;18.00;4.70;;;16.20;99.90;;;;;;4954592;29;20079;-72
2020/12/05 17:33:31;;;;;;;18.08;4.30;;;16.20;99.90;;;;;;4955413;29;20075;-73
2020/12/05 17:36:00;;;;;;;26.25;6.43;;;16.10;99.90;;;;;;4955366;29;20019;-73
2020/12/05 17:38:26;;;;;;;17.20;4.38;;;16.20;99.90;;;;;;4944672;29;20024;-73
2020/12/05 17:40:53;;;;;;;21.95;5.75;;;16.20;99.90;;;;;;4936782;29;20031;-73
2020/12/05 17:43:19;;;;;;;18.50;4.03;;;16.20;99.90;;;;;;4940995;29;20040;-73
2020/12/05 17:45:45;;;;;;;22.08;4.72;;;16.10;99.90;;;;;;4948802;29;20023;-73
2020/12/05 17:48:11;;;;;;;25.02;4.93;;;16.20;99.90;;;;;;4938090;29;20035;-73
2020/12/05 17:50:37;;;;;;;21.08;4.10;;;16.20;99.90;;;;;;4934062;29;20027;-73
2020/12/05 17:53:03;;;;;;;16.95;5.50;;;16.20;99.90;;;;;;4947847;29;20032;-73
2020/12/05 17:55:29;;;;;;;15.90;4.47;;;16.20;99.90;;;;;;4944362;29;20040;-73
2020/12/05 17:57:55;;;;;;;27.60;4.97;;;16.20;99.90;;;;;;4950790;29;20050;-73
2020/12/05 18:00:23;;;;;;;22.27;5.55;;;16.10;99.90;;;;;;4938274;29;20023;-73
2020/12/05 18:02:50;;;;;;;20.80;5.05;;;16.10;99.90;;;;;;4923060;29;20027;-73
2020/12/05 18:05:16;;;;;;;23.35;6.05;;;16.20;99.90;;;;;;4950931;29;20881;-73
2020/12/05 18:07:42;;;;;;;23.67;4.50;;;16.20;99.90;;;;;;4950826;29;20062;-73
2020/12/05 18:10:08;;;;;;;26.00;5.15;;;16.20;99.90;;;;;;4941468;29;20090;-72
2020/12/05 18:12:34;;;;;;;25.98;5.03;;;16.20;99.90;;;;;;4952670;28;20027;-73
2020/12/05 18:15:00;;;;;;;24.17;4.15;;;16.20;99.90;;;;;;4954385;28;20874;-73
2020/12/05 18:17:26;;;;;;;22.73;5.32;;;16.20;99.90;;;;;;4964867;28;20027;-72
2020/12/05 18:19:52;;;;;;;19.13;4.50;;;16.10;99.90;;;;;;4965404;28;20086;-73
2020/12/05 18:22:18;;;;;;;29.08;4.68;;;16.20;99.90;;;;;;4967941;28;20030;-73
2020/12/05 18:24:44;;;;;;;29.55;5.03;;;16.20;99.90;;;;;;4968296;28;20038;-73
2020/12/05 18:27:10;;;;;;;24.63;4.40;;;16.20;99.90;;;;;;4966438;28;20034;-73
2020/12/05 18:29:36;;;;;;;30.42;5.60;;;16.20;99.90;;;;;;4967117;28;20043;-73
2020/12/05 18:32:02;;;;;;;19.48;5.72;;;16.20;99.90;;;;;;4951335;28;20393;-73
2020/12/05 18:34:29;;;;;;;18.90;4.85;;;16.20;99.90;;;;;;4971388;28;20102;-73
2020/12/05 18:36:59;;;;;;;22.98;4.28;;;16.20;99.90;;;;;;4969548;28;20094;-73
2020/12/05 18:39:26;;;;;;;16.02;4.25;;;16.20;99.90;;;;;;4974797;28;20035;-73
2020/12/05 18:41:52;;;;;;;24.48;7.15;;;16.20;99.90;;;;;;4969151;28;20091;-73
2020/12/05 18:44:19;;;;;;;20.90;5.25;;;16.20;99.90;;;;;;4966648;28;20516;-73
2020/12/05 18:46:48;;;;;;;17.38;4.45;;;16.20;99.90;;;;;;4967613;28;20045;-73
2020/12/05 18:49:16;;;;;;;13.82;5.07;;;16.10;99.90;;;;;;4951534;28;20121;-73
2020/12/05 18:51:42;;;;;;;10.68;4.03;;;16.20;99.90;;;;;;4970401;28;20434;-73
2020/12/05 18:54:08;;;;;;;22.30;4.72;;;16.20;99.90;;;;;;4964186;28;20057;-73
2020/12/05 18:56:34;;;;;;;15.98;4.35;;;16.20;99.90;;;;;;4946059;29;20039;-72
2020/12/05 18:59:00;;;;;;;21.77;4.90;;;16.20;99.90;;;;;;4964870;28;20039;-73
2020/12/05 19:01:27;;;;;;;25.85;7.28;;;16.20;99.90;;;;;;4947340;28;20031;-73
2020/12/05 19:03:55;;;;;;;31.70;6.43;;;16.20;99.90;;;;;;4942389;29;20444;-73
2020/12/05 19:06:23;;;;;;;23.83;7.00;;;16.20;99.90;;;;;;4963439;28;20023;-73
2020/12/05 19:08:49;;;;;;;28.90;5.90;;;16.20;99.90;;;;;;4962657;28;20090;-73
2020/12/05 19:11:20;;;;;;;23.25;5.68;;;16.20;99.90;;;;;;4965997;28;20031;-73
2020/12/05 19:13:47;;;;;;;26.38;4.65;;;16.20;99.90;;;;;;4950745;28;20031;-74
2020/12/05 19:16:13;;;;;;;27.13;4.63;;;16.20;99.90;;;;;;4964485;28;20055;-73
2020/12/05 19:18:39;;;;;;;18.38;4.32;;;16.30;99.90;;;;;;4944267;28;20054;-73
2020/12/05 19:21:05;;;;;;;22.20;5.35;;;16.30;99.90;;;;;;4942364;29;20058;-73
2020/12/05 19:23:31;;;;;;;20.98;4.78;;;16.30;99.90;;;;;;4955713;28;20050;-73
2020/12/05 19:25:57;;;;;;;17.55;4.35;;;16.20;99.90;;;;;;4965171;28;20028;-73
2020/12/05 19:28:23;;;;;;;19.10;5.15;;;16.20;99.90;;;;;;4950141;28;20033;-73
2020/12/05 19:30:49;;;;;;;21.95;5.28;;;16.20;99.90;;;;;;4943560;29;20043;-72
2020/12/05 19:33:15;;;;;;;20.85;5.03;;;16.20;99.90;;;;;;4954612;29;20047;-73
2020/12/05 19:35:40;;;;;;;14.75;3.72;;;16.20;99.90;;;;;;4943155;29;20050;-73
2020/12/05 19:38:06;;;;;;;13.02;4.28;;;16.30;99.90;;;;;;4953880;28;20023;-73
2020/12/05 19:40:32;;;;;;;26.27;5.13;;;16.30;99.90;;;;;;4961419;28;20023;-73
2020/12/05 19:42:58;;;;;;;18.67;4.07;;;16.30;99.90;;;;;;4963238;28;20485;-73
2020/12/05 19:45:26;;;;;;;23.23;4.72;;;16.30;99.90;;;;;;4963908;28;20020;-73
2020/12/05 19:47:53;;;;;;;28.55;5.90;;;16.30;99.90;;;;;;4971299;28;20033;-73
2020/12/05 19:50:19;;;;;;;17.80;3.97;;;16.20;99.90;;;;;;4961733;28;20035;-73
2020/12/05 19:52:46;;;;;;;21.70;4.35;;;16.20;99.90;;;;;;4954895;28;20118;-73
2020/12/05 19:55:13;;;;;;;38.55;8.07;;;16.20;99.90;;;;;;4954542;29;20034;-73
2020/12/05 19:57:39;;;;;;;20.02;4.30;;;16.20;99.90;;;;;;4952725;29;20362;-73
2020/12/05 20:00:09;;;;;;;25.77;5.82;;;16.20;99.90;;;;;;4957176;29;20114;-73
2020/12/05 20:02:36;;;;;;;22.27;4.80;;;16.20;99.90;;;;;;4956714;29;20129;-73
2020/12/05 20:05:03;;;;;;;19.02;4.30;;;16.20;99.90;;;;;;4958009;28;20046;-73
2020/12/05 20:07:29;;;;;;;19.50;6.38;;;16.20;99.90;;;;;;4967344;28;20037;-73
2020/12/05 20:10:02;;;;;;;15.32;4.90;;;16.20;99.90;;;;;;4966528;28;20023;-73
2020/12/05 20:12:29;;;;;;;20.55;5.60;;;16.20;99.90;;;;;;4950848;28;20466;-73
2020/12/05 20:14:55;;;;;;;23.10;4.38;;;16.30;99.90;;;;;;4955081;28;20031;-73
2020/12/05 20:17:21;;;;;;;18.02;5.72;;;16.20;99.90;;;;;;4946490;29;20031;-73
2020/12/05 20:19:47;;;;;;;17.23;4.10;;;16.20;99.90;;;;;;4949464;29;20486;-73
2020/12/05 20:22:15;;;;;;;21.10;5.32;;;16.20;99.90;;;;;;4941260;29;20031;-73
2020/12/05 20:24:41;;;;;;;13.52;4.10;;;16.20;99.90;;;;;;4942890;29;20071;-73
2020/12/05 20:27:07;;;;;;;15.90;4.68;;;16.20;99.90;;;;;;4937320;29;20036;-73
2020/12/05 20:29:33;;;;;;;16.52;4.22;;;16.20;99.90;;;;;;4937190;29;20028;-73
2020/12/05 20:31:59;;;;;;;25.25;5.93;;;16.20;99.90;;;;;;4956918;28;20026;-73
2020/12/05 20:34:25;;;;;;;18.90;4.93;;;16.20;99.90;;;;;;4956146;29;20058;-73
2020/12/05 20:36:59;;;;;;;18.83;4.10;;;16.20;99.90;;;;;;4935826;29;20024;-72
2020/12/05 20:39:28;;;;;;;20.35;4.90;;;16.20;99.90;;;;;;4936979;29;20028;-73
2020/12/05 20:42:00;;;;;;;27.50;5.40;;;16.20;99.90;;;;;;4936612;29;20466;-73
2020/12/05 20:44:26;;;;;;;17.15;5.30;;;16.20;99.90;;;;;;4937150;29;20039;-73
2020/12/05 20:46:52;;;;;;;20.67;3.72;;;16.30;99.90;;;;;;4940748;29;20082;-75
2020/12/05 20:49:19;;;;;;;14.60;3.88;;;16.30;99.90;;;;;;4949470;29;20426;-73
2020/12/05 20:51:45;;;;;;;16.73;3.97;;;16.30;99.90;;;;;;4949946;29;20029;-73
2020/12/05 20:54:12;;;;;;;18.95;3.85;;;16.30;99.90;;;;;;4955636;29;20027;-73
2020/12/05 20:56:46;;;;;;;24.00;4.47;;;16.30;99.90;;;;;;4950234;29;20393;-73
2020/12/05 20:59:12;;;;;;;24.20;4.70;;;16.40;99.90;;;;;;4938519;29;20027;-73
2020/12/05 21:01:39;;;;;;;15.98;4.43;;;16.30;99.90;;;;;;4947305;29;20027;-73
2020/12/05 21:04:05;;;;;;;15.15;4.32;;;16.30;99.90;;;;;;4940216;29;20034;-73
2020/12/05 21:06:31;;;;;;;19.70;5.22;;;16.30;99.90;;;;;;4943087;29;20016;-73
2020/12/05 21:08:58;;;;;;;25.75;4.70;;;16.30;99.90;;;;;;4947017;29;20031;-73
2020/12/05 21:11:32;;;;;;;23.13;4.70;;;16.30;99.90;;;;;;4937562;29;20023;-72
2020/12/05 21:13:59;;;;;;;19.70;4.78;;;16.30;99.90;;;;;;4954643;29;20038;-73
2020/12/05 21:16:25;;;;;;;23.42;4.07;;;16.30;99.90;;;;;;4954360;29;20435;-73
2020/12/05 21:18:51;;;;;;;13.52;4.40;;;16.30;99.90;;;;;;4955530;29;20055;-73
2020/12/05 21:21:18;;;;;;;20.20;5.07;;;16.30;99.90;;;;;;4944812;29;20027;-74
2020/12/05 21:23:45;;;;;;;18.48;3.88;;;16.30;99.90;;;;;;4936604;29;20047;-73
2020/12/05 21:26:17;;;;;;;30.23;7.13;;;16.30;99.90;;;;;;4946432;28;20516;-73
2020/12/05 21:28:44;;;;;;;14.95;4.70;;;16.30;99.90;;;;;;4942259;29;20409;-73
2020/12/05 21:31:16;;;;;;;23.27;5.13;;;16.30;99.90;;;;;;4940313;29;20087;-73
2020/12/05 21:33:42;;;;;;;;;;;16.20;99.90;;;;;;4957000;29;20019;-73
2020/12/05 21:36:08;;;;;;;14.43;4.03;;;16.20;99.90;;;;;;4939081;29;19906;-73
2020/12/05 21:38:34;;;;;;;20.48;4.57;;;16.30;99.90;;;;;;4962663;28;20023;-72
2020/12/05 21:41:00;;;;;;;17.55;4.47;;;16.30;99.90;;;;;;4961071;28;20686;-73
2020/12/05 21:43:26;;;;;;;25.15;4.65;;;16.30;99.90;;;;;;4964251;28;20139;-73
2020/12/05 21:45:55;;;;;;;18.20;5.55;;;16.20;99.90;;;;;;4963051;28;20035;-73
2020/12/05 21:48:22;;;;;;;20.40;6.95;;;16.30;99.90;;;;;;4965231;28;20034;-73
2020/12/05 21:50:47;;;;;;;17.58;4.80;;;16.30;99.90;;;;;;4960679;28;20063;-73
2020/12/05 21:53:13;;;;;;;23.15;4.88;;;16.30;99.90;;;;;;4954520;29;20038;-73
2020/12/05 21:55:39;;;;;;;20.35;4.90;;;16.20;99.90;;;;;;4959522;28;20023;-73
2020/12/05 21:58:05;;;;;;;17.58;5.60;;;16.20;99.90;;;;;;4963355;28;20081;-73
2020/12/05 22:00:31;;;;;;;23.73;4.90;;;16.20;99.90;;;;;;4944294;29;20094;-72
2020/12/05 22:03:00;;;;;;;27.80;6.10;;;16.20;99.90;;;;;;4955196;29;20027;-73
2020/12/05 22:05:26;;;;;;;17.38;4.80;;;16.20;99.90;;;;;;4952124;28;20027;-72
2020/12/05 22:07:52;;;;;;;29.92;6.20;;;16.20;99.90;;;;;;4953655;28;20027;-73
2020/12/05 22:10:18;;;;;;;20.05;5.95;;;16.20;99.90;;;;;;4961888;28;20039;-73
2020/12/05 22:12:44;;;;;;;18.30;3.83;;;16.20;99.90;;;;;;4950284;29;20059;-73
2020/12/05 22:15:11;;;;;;;15.93;4.22;;;16.20;99.90;;;;;;4942435;29;20023;-72
2020/12/05 22:17:37;;;;;;;16.55;3.65;;;16.10;99.90;;;;;;4951436;29;20047;-73
2020/12/05 22:20:07;;;;;;;23.83;4.97;;;16.10;99.90;;;;;;4956062;28;20067;-73
2020/12/05 22:22:40;;;;;;;16.90;4.25;;;16.10;99.90;;;;;;4957696;28;20027;-73
2020/12/05 22:25:10;;;;;;;15.13;4.03;;;16.10;99.90;;;;;;4932267;28;20046;-73
2020/12/05 22:27:37;;;;;;;18.55;3.55;;;16.20;99.90;;;;;;4965039;28;20030;-73
2020/12/05 22:30:06;;;;;;;23.95;6.25;;;16.10;99.90;;;;;;4961873;28;20106;-73
2020/12/05 22:32:32;;;;;;;18.05;4.55;;;16.20;99.90;;;;;;4969997;28;20078;-73
2020/12/05 22:35:01;;;;;;;16.70;4.15;;;16.10;99.90;;;;;;4959917;28;21811;-73
2020/12/05 22:37:27;;;;;;;24.13;6.35;;;16.10;99.90;;;;;;4957516;28;20037;-73
2020/12/05 22:39:54;;;;;;;23.77;4.88;;;16.10;99.90;;;;;;4954568;28;20110;-73
2020/12/05 22:42:19;;;;;;;19.15;4.20;;;16.10;99.90;;;;;;4969899;28;20038;-73
2020/12/05 22:44:45;;;;;;;20.05;4.35;;;16.10;99.90;;;;;;4950718;28;20023;-73
2020/12/05 22:47:13;;;;;;;13.95;3.88;;;16.10;99.90;;;;;;4960262;28;20047;-73
2020/12/05 22:49:39;;;;;;;18.45;4.22;;;16.10;99.90;;;;;;4955342;28;20038;-73
2020/12/05 22:52:10;;;;;;;22.15;4.85;;;16.00;99.90;;;;;;4965399;28;20027;-73
2020/12/05 22:54:37;;;;;;;22.55;4.85;;;16.00;99.90;;;;;;4963673;28;20039;-72
2020/12/05 22:57:04;;;;;;;22.38;4.82;;;16.00;99.90;;;;;;4957224;28;20051;-73
2020/12/05 22:59:30;;;;;;;23.13;4.10;;;16.00;99.90;;;;;;4954992;29;20028;-73
2020/12/05 23:01:56;;;;;;;19.75;4.57;;;16.00;99.90;;;;;;4956193;28;20034;-73
2020/12/05 23:04:23;;;;;;;20.15;4.13;;;16.00;99.90;;;;;;4958802;28;20047;-73
2020/12/05 23:06:49;;;;;;;24.45;4.70;;;16.00;99.90;;;;;;4964811;28;20046;-73
2020/12/05 23:09:16;;;;;;;16.92;4.13;;;16.00;99.90;;;;;;4962782;28;20477;-73
2020/12/05 23:11:42;;;;;;;30.58;5.68;;;15.90;99.90;;;;;;4959604;28;20377;-73
2020/12/05 23:14:08;;;;;;;24.50;5.70;;;16.00;99.90;;;;;;4947013;29;20040;-73
2020/12/05 23:16:34;;;;;;;17.42;4.80;;;15.90;99.90;;;;;;4955699;28;20184;-72
2020/12/05 23:19:03;;;;;;;18.40;5.63;;;15.90;99.90;;;;;;4945508;28;20117;-73
2020/12/05 23:21:29;;;;;;;22.15;4.55;;;15.90;99.90;;;;;;4959392;28;20086;-73
2020/12/05 23:23:55;;;;;;;25.58;5.25;;;16.00;99.90;;;;;;4965687;28;20066;-73
2020/12/05 23:26:22;;;;;;;20.15;4.80;;;16.00;99.90;;;;;;4939277;29;20035;-73
2020/12/05 23:28:50;;;;;;;16.83;3.90;;;16.00;99.90;;;;;;4972334;28;20027;-73
2020/12/05 23:36:36;;;;;;;20.20;5.32;;;15.90;99.90;;;;;;4969243;28;20030;-73
2020/12/05 23:39:02;;;;;;;28.27;4.30;;;16.00;99.90;;;;;;4969670;28;20023;-72
2020/12/05 23:41:27;;;;;;;17.02;4.25;;;16.00;99.90;;;;;;4956631;28;20078;-72
2020/12/05 23:43:53;;;;;;;18.95;4.72;;;16.00;99.90;;;;;;4966838;28;20031;-73
2020/12/05 23:46:19;;;;;;;17.08;5.53;;;16.00;99.90;;;;;;4955645;28;20401;-73
2020/12/05 23:48:45;;;;;;;15.90;4.07;;;16.00;99.90;;;;;;4960187;28;20116;-72
2020/12/05 23:51:10;;;;;;;24.55;4.30;;;16.00;99.90;;;;;;4957426;28;20047;-73
2020/12/05 23:53:41;;;;;;;22.60;5.95;;;16.00;99.90;;;;;;4956968;28;20057;-73
2020/12/05 23:56:09;;;;;;;20.55;5.18;;;16.00;99.90;;;;;;4956102;28;20094;-73
2020/12/05 23:58:36;;;;;;;34.15;5.05;;;16.00;99.90;;;;;;4967733;28;20045;-73
